sensor_id;sensor_type;location;lat;lon;timestamp;P1;durP1;ratioP1;P2;durP2;ratioP2
6406;SDS011;3236;51.022;6.818;2023-02-17T00:02:25;15.73;;;9.13;;
6406;SDS011;3236;51.022;6.818;2023-02-17T00:04:52;18.20;;;8.52;;
6406;SDS011;3236;51.022;6.818;2023-02-17T00:07:20;16.42;;;7.43;;
6406;SDS011;3236;51.022;6.818;2023-02-17T00:09:48;10.45;;;6.45;;
6406;SDS011;3236;51.022;6.818;2023-02-17T00:12:16;14.27;;;7.18;;
6406;SDS011;3236;51.022;6.818;2023-02-17T00:14:44;18.10;;;9.80;;
6406;SDS011;3236;51.022;6.818;2023-02-17T00:17:11;11.40;;;7.20;;
6406;SDS011;3236;51.022;6.818;2023-02-17T00:19:38;14.98;;;6.97;;
6406;SDS011;3236;51.022;6.818;2023-02-17T00:22:08;9.80;;;6.13;;
6406;SDS011;3236;51.022;6.818;2023-02-17T00:24:36;14.15;;;7.60;;
6406;SDS011;3236;51.022;6.818;2023-02-17T00:27:10;13.18;;;7.20;;
6406;SDS011;3236;51.022;6.818;2023-02-17T00:29:42;12.05;;;7.13;;
6406;SDS011;3236;51.022;6.818;2023-02-17T00:32:09;12.45;;;7.50;;
6406;SDS011;3236;51.022;6.818;2023-02-17T00:34:37;14.60;;;7.13;;
6406;SDS011;3236;51.022;6.818;2023-02-17T00:37:06;12.00;;;6.38;;
6406;SDS011;3236;51.022;6.818;2023-02-17T00:39:33;9.75;;;6.15;;
6406;SDS011;3236;51.022;6.818;2023-02-17T00:42:01;9.32;;;5.95;;
6406;SDS011;3236;51.022;6.818;2023-02-17T00:44:29;9.68;;;6.32;;
6406;SDS011;3236;51.022;6.818;2023-02-17T00:46:58;9.90;;;6.07;;
6406;SDS011;3236;51.022;6.818;2023-02-17T00:49:39;15.55;;;7.15;;
6406;SDS011;3236;51.022;6.818;2023-02-17T00:52:09;11.57;;;6.25;;
6406;SDS011;3236;51.022;6.818;2023-02-17T00:54:37;12.15;;;7.90;;
6406;SDS011;3236;51.022;6.818;2023-02-17T00:57:04;13.57;;;7.63;;
6406;SDS011;3236;51.022;6.818;2023-02-17T00:59:32;15.00;;;7.25;;
6406;SDS011;3236;51.022;6.818;2023-02-17T01:02:03;9.20;;;5.75;;
6406;SDS011;3236;51.022;6.818;2023-02-17T01:04:31;6.10;;;4.63;;
6406;SDS011;3236;51.022;6.818;2023-02-17T01:06:59;14.60;;;7.57;;
6406;SDS011;3236;51.022;6.818;2023-02-17T01:09:26;12.13;;;6.80;;
6406;SDS011;3236;51.022;6.818;2023-02-17T01:11:57;12.48;;;7.57;;
6406;SDS011;3236;51.022;6.818;2023-02-17T01:14:26;11.18;;;6.97;;
6406;SDS011;3236;51.022;6.818;2023-02-17T01:16:55;10.40;;;6.93;;
6406;SDS011;3236;51.022;6.818;2023-02-17T01:19:24;12.88;;;7.18;;
6406;SDS011;3236;51.022;6.818;2023-02-17T01:21:51;9.75;;;6.45;;
6406;SDS011;3236;51.022;6.818;2023-02-17T01:24:18;12.70;;;6.13;;
6406;SDS011;3236;51.022;6.818;2023-02-17T01:26:45;10.65;;;6.63;;
6406;SDS011;3236;51.022;6.818;2023-02-17T01:29:12;13.82;;;5.90;;
6406;SDS011;3236;51.022;6.818;2023-02-17T01:31:39;14.00;;;7.70;;
6406;SDS011;3236;51.022;6.818;2023-02-17T01:34:07;11.95;;;6.03;;
6406;SDS011;3236;51.022;6.818;2023-02-17T01:36:37;10.25;;;6.38;;
6406;SDS011;3236;51.022;6.818;2023-02-17T01:39:08;8.20;;;6.35;;
6406;SDS011;3236;51.022;6.818;2023-02-17T01:41:41;7.72;;;5.55;;
6406;SDS011;3236;51.022;6.818;2023-02-17T01:44:12;8.77;;;6.63;;
6406;SDS011;3236;51.022;6.818;2023-02-17T01:46:41;10.10;;;6.55;;
6406;SDS011;3236;51.022;6.818;2023-02-17T01:49:14;10.45;;;6.53;;
6406;SDS011;3236;51.022;6.818;2023-02-17T01:51:49;12.02;;;7.78;;
6406;SDS011;3236;51.022;6.818;2023-02-17T01:54:20;9.73;;;5.32;;
6406;SDS011;3236;51.022;6.818;2023-02-17T01:56:50;13.38;;;7.43;;
6406;SDS011;3236;51.022;6.818;2023-02-17T01:59:24;10.38;;;6.95;;
6406;SDS011;3236;51.022;6.818;2023-02-17T02:01:53;11.98;;;6.60;;
6406;SDS011;3236;51.022;6.818;2023-02-17T02:04:25;11.15;;;5.35;;
6406;SDS011;3236;51.022;6.818;2023-02-17T02:07:00;12.20;;;7.65;;
6406;SDS011;3236;51.022;6.818;2023-02-17T02:09:37;6.65;;;4.30;;
6406;SDS011;3236;51.022;6.818;2023-02-17T02:12:16;10.82;;;7.57;;
6406;SDS011;3236;51.022;6.818;2023-02-17T02:14:44;11.57;;;7.10;;
6406;SDS011;3236;51.022;6.818;2023-02-17T02:17:13;15.82;;;8.27;;
6406;SDS011;3236;51.022;6.818;2023-02-17T02:23:11;12.18;;;7.28;;
6406;SDS011;3236;51.022;6.818;2023-02-17T02:26:15;12.80;;;6.97;;
6406;SDS011;3236;51.022;6.818;2023-02-17T02:29:07;8.73;;;6.22;;
6406;SDS011;3236;51.022;6.818;2023-02-17T02:31:50;17.02;;;7.78;;
6406;SDS011;3236;51.022;6.818;2023-02-17T02:34:42;12.45;;;7.70;;
6406;SDS011;3236;51.022;6.818;2023-02-17T02:37:16;7.13;;;5.38;;
6406;SDS011;3236;51.022;6.818;2023-02-17T02:39:49;11.85;;;7.63;;
6406;SDS011;3236;51.022;6.818;2023-02-17T02:42:20;11.32;;;7.00;;
6406;SDS011;3236;51.022;6.818;2023-02-17T02:44:49;15.52;;;8.40;;
6406;SDS011;3236;51.022;6.818;2023-02-17T02:50:15;13.98;;;8.02;;
6406;SDS011;3236;51.022;6.818;2023-02-17T02:52:48;11.60;;;7.47;;
6406;SDS011;3236;51.022;6.818;2023-02-17T02:55:43;11.70;;;7.13;;
6406;SDS011;3236;51.022;6.818;2023-02-17T02:58:19;12.30;;;7.22;;
6406;SDS011;3236;51.022;6.818;2023-02-17T03:00:56;11.80;;;6.82;;
6406;SDS011;3236;51.022;6.818;2023-02-17T03:03:39;17.30;;;7.13;;
6406;SDS011;3236;51.022;6.818;2023-02-17T03:06:14;10.85;;;6.75;;
6406;SDS011;3236;51.022;6.818;2023-02-17T03:08:52;12.82;;;8.52;;
6406;SDS011;3236;51.022;6.818;2023-02-17T03:11:31;13.70;;;8.32;;
6406;SDS011;3236;51.022;6.818;2023-02-17T03:14:01;11.82;;;7.60;;
6406;SDS011;3236;51.022;6.818;2023-02-17T03:16:33;11.73;;;7.63;;
6406;SDS011;3236;51.022;6.818;2023-02-17T03:19:01;13.75;;;7.40;;
6406;SDS011;3236;51.022;6.818;2023-02-17T03:21:31;11.68;;;6.97;;
6406;SDS011;3236;51.022;6.818;2023-02-17T03:24:03;11.30;;;6.72;;
6406;SDS011;3236;51.022;6.818;2023-02-17T03:26:31;10.13;;;6.95;;
6406;SDS011;3236;51.022;6.818;2023-02-17T03:28:58;11.07;;;7.60;;
6406;SDS011;3236;51.022;6.818;2023-02-17T03:31:28;10.90;;;7.20;;
6406;SDS011;3236;51.022;6.818;2023-02-17T03:33:55;12.82;;;7.97;;
6406;SDS011;3236;51.022;6.818;2023-02-17T03:36:30;12.40;;;7.88;;
6406;SDS011;3236;51.022;6.818;2023-02-17T03:38:57;10.32;;;7.07;;
6406;SDS011;3236;51.022;6.818;2023-02-17T03:41:25;10.38;;;6.13;;
6406;SDS011;3236;51.022;6.818;2023-02-17T03:43:55;8.65;;;5.60;;
6406;SDS011;3236;51.022;6.818;2023-02-17T03:46:23;14.52;;;7.22;;
6406;SDS011;3236;51.022;6.818;2023-02-17T03:48:50;11.35;;;7.70;;
6406;SDS011;3236;51.022;6.818;2023-02-17T03:51:18;11.98;;;7.63;;
6406;SDS011;3236;51.022;6.818;2023-02-17T03:53:48;12.90;;;7.70;;
6406;SDS011;3236;51.022;6.818;2023-02-17T03:56:16;13.05;;;8.02;;
6406;SDS011;3236;51.022;6.818;2023-02-17T03:58:47;12.05;;;6.85;;
6406;SDS011;3236;51.022;6.818;2023-02-17T04:01:15;10.63;;;7.63;;
6406;SDS011;3236;51.022;6.818;2023-02-17T04:03:42;9.90;;;6.97;;
6406;SDS011;3236;51.022;6.818;2023-02-17T04:06:16;11.05;;;7.03;;
6406;SDS011;3236;51.022;6.818;2023-02-17T04:08:44;11.25;;;7.53;;
6406;SDS011;3236;51.022;6.818;2023-02-17T04:13:44;11.65;;;6.40;;
6406;SDS011;3236;51.022;6.818;2023-02-17T04:16:11;10.88;;;7.18;;
6406;SDS011;3236;51.022;6.818;2023-02-17T04:18:39;12.45;;;7.85;;
6406;SDS011;3236;51.022;6.818;2023-02-17T04:21:06;9.98;;;6.43;;
6406;SDS011;3236;51.022;6.818;2023-02-17T04:23:35;11.07;;;7.38;;
6406;SDS011;3236;51.022;6.818;2023-02-17T04:26:02;11.18;;;6.82;;
6406;SDS011;3236;51.022;6.818;2023-02-17T04:28:32;14.98;;;7.55;;
6406;SDS011;3236;51.022;6.818;2023-02-17T04:31:02;12.10;;;6.88;;
6406;SDS011;3236;51.022;6.818;2023-02-17T04:33:29;10.07;;;6.95;;
6406;SDS011;3236;51.022;6.818;2023-02-17T04:35:59;10.27;;;6.32;;
6406;SDS011;3236;51.022;6.818;2023-02-17T04:38:26;10.23;;;7.15;;
6406;SDS011;3236;51.022;6.818;2023-02-17T04:40:55;9.45;;;6.50;;
6406;SDS011;3236;51.022;6.818;2023-02-17T04:43:23;12.10;;;7.03;;
6406;SDS011;3236;51.022;6.818;2023-02-17T04:45:52;10.50;;;7.72;;
6406;SDS011;3236;51.022;6.818;2023-02-17T04:48:19;8.77;;;6.82;;
6406;SDS011;3236;51.022;6.818;2023-02-17T04:50:47;11.00;;;6.57;;
6406;SDS011;3236;51.022;6.818;2023-02-17T04:53:17;12.15;;;7.18;;
6406;SDS011;3236;51.022;6.818;2023-02-17T04:55:48;11.38;;;7.93;;
6406;SDS011;3236;51.022;6.818;2023-02-17T04:58:16;10.65;;;6.50;;
6406;SDS011;3236;51.022;6.818;2023-02-17T05:00:45;13.07;;;7.82;;
6406;SDS011;3236;51.022;6.818;2023-02-17T05:03:19;10.77;;;7.95;;
6406;SDS011;3236;51.022;6.818;2023-02-17T05:05:48;11.07;;;6.88;;
6406;SDS011;3236;51.022;6.818;2023-02-17T05:08:21;9.27;;;6.97;;
6406;SDS011;3236;51.022;6.818;2023-02-17T05:10:49;9.40;;;7.18;;
6406;SDS011;3236;51.022;6.818;2023-02-17T05:13:17;10.93;;;6.65;;
6406;SDS011;3236;51.022;6.818;2023-02-17T05:15:45;10.85;;;6.72;;
6406;SDS011;3236;51.022;6.818;2023-02-17T05:18:19;8.80;;;6.95;;
6406;SDS011;3236;51.022;6.818;2023-02-17T05:20:50;11.70;;;5.65;;
6406;SDS011;3236;51.022;6.818;2023-02-17T05:23:17;12.55;;;6.75;;
6406;SDS011;3236;51.022;6.818;2023-02-17T05:25:44;9.82;;;6.45;;
6406;SDS011;3236;51.022;6.818;2023-02-17T05:28:12;7.90;;;5.88;;
6406;SDS011;3236;51.022;6.818;2023-02-17T05:30:39;11.23;;;6.80;;
6406;SDS011;3236;51.022;6.818;2023-02-17T05:33:08;8.45;;;5.65;;
6406;SDS011;3236;51.022;6.818;2023-02-17T05:35:39;7.72;;;5.55;;
6406;SDS011;3236;51.022;6.818;2023-02-17T05:38:16;10.23;;;6.75;;
6406;SDS011;3236;51.022;6.818;2023-02-17T05:40:43;9.02;;;6.22;;
6406;SDS011;3236;51.022;6.818;2023-02-17T05:43:12;10.45;;;4.97;;
6406;SDS011;3236;51.022;6.818;2023-02-17T05:45:39;9.13;;;6.00;;
6406;SDS011;3236;51.022;6.818;2023-02-17T05:48:09;7.78;;;5.53;;
6406;SDS011;3236;51.022;6.818;2023-02-17T05:50:41;8.40;;;5.97;;
6406;SDS011;3236;51.022;6.818;2023-02-17T05:53:09;7.20;;;4.55;;
6406;SDS011;3236;51.022;6.818;2023-02-17T05:55:38;8.65;;;5.75;;
6406;SDS011;3236;51.022;6.818;2023-02-17T05:58:06;6.95;;;4.65;;
6406;SDS011;3236;51.022;6.818;2023-02-17T06:00:37;8.75;;;5.38;;
6406;SDS011;3236;51.022;6.818;2023-02-17T06:03:04;8.55;;;6.30;;
6406;SDS011;3236;51.022;6.818;2023-02-17T06:05:31;8.20;;;5.75;;
6406;SDS011;3236;51.022;6.818;2023-02-17T06:08:00;10.45;;;5.40;;
6406;SDS011;3236;51.022;6.818;2023-02-17T06:10:28;8.48;;;5.00;;
6406;SDS011;3236;51.022;6.818;2023-02-17T06:12:55;8.40;;;5.35;;
6406;SDS011;3236;51.022;6.818;2023-02-17T06:15:25;7.10;;;5.05;;
6406;SDS011;3236;51.022;6.818;2023-02-17T06:17:53;7.22;;;5.50;;
6406;SDS011;3236;51.022;6.818;2023-02-17T06:20:21;8.23;;;5.60;;
6406;SDS011;3236;51.022;6.818;2023-02-17T06:22:48;12.93;;;5.35;;
6406;SDS011;3236;51.022;6.818;2023-02-17T06:25:19;8.32;;;5.05;;
6406;SDS011;3236;51.022;6.818;2023-02-17T06:27:46;6.63;;;4.90;;
6406;SDS011;3236;51.022;6.818;2023-02-17T06:30:14;8.43;;;5.30;;
6406;SDS011;3236;51.022;6.818;2023-02-17T06:32:41;6.65;;;4.75;;
6406;SDS011;3236;51.022;6.818;2023-02-17T06:35:08;8.63;;;4.60;;
6406;SDS011;3236;51.022;6.818;2023-02-17T06:37:35;12.50;;;6.50;;
6406;SDS011;3236;51.022;6.818;2023-02-17T06:40:06;6.57;;;4.80;;
6406;SDS011;3236;51.022;6.818;2023-02-17T06:42:35;7.55;;;4.32;;
6406;SDS011;3236;51.022;6.818;2023-02-17T06:45:03;9.88;;;5.15;;
6406;SDS011;3236;51.022;6.818;2023-02-17T06:47:31;9.95;;;6.35;;
6406;SDS011;3236;51.022;6.818;2023-02-17T06:50:00;6.18;;;4.60;;
6406;SDS011;3236;51.022;6.818;2023-02-17T06:52:27;8.30;;;5.97;;
6406;SDS011;3236;51.022;6.818;2023-02-17T06:54:55;7.22;;;5.25;;
6406;SDS011;3236;51.022;6.818;2023-02-17T06:57:22;14.73;;;6.18;;
6406;SDS011;3236;51.022;6.818;2023-02-17T06:59:51;8.93;;;5.43;;
6406;SDS011;3236;51.022;6.818;2023-02-17T07:02:24;6.57;;;4.40;;
6406;SDS011;3236;51.022;6.818;2023-02-17T07:04:52;6.18;;;4.15;;
6406;SDS011;3236;51.022;6.818;2023-02-17T07:07:19;11.52;;;6.03;;
6406;SDS011;3236;51.022;6.818;2023-02-17T07:09:47;7.57;;;5.38;;
6406;SDS011;3236;51.022;6.818;2023-02-17T07:12:15;7.68;;;5.50;;
6406;SDS011;3236;51.022;6.818;2023-02-17T07:14:44;9.75;;;6.38;;
6406;SDS011;3236;51.022;6.818;2023-02-17T07:17:17;7.60;;;5.10;;
6406;SDS011;3236;51.022;6.818;2023-02-17T07:19:49;9.90;;;5.47;;
6406;SDS011;3236;51.022;6.818;2023-02-17T07:22:16;7.30;;;6.32;;
6406;SDS011;3236;51.022;6.818;2023-02-17T07:24:43;11.23;;;5.68;;
6406;SDS011;3236;51.022;6.818;2023-02-17T07:27:13;8.20;;;5.57;;
6406;SDS011;3236;51.022;6.818;2023-02-17T07:29:40;9.48;;;4.88;;
6406;SDS011;3236;51.022;6.818;2023-02-17T07:32:09;5.95;;;4.05;;
6406;SDS011;3236;51.022;6.818;2023-02-17T07:34:38;8.30;;;4.95;;
6406;SDS011;3236;51.022;6.818;2023-02-17T07:37:06;13.55;;;4.80;;
6406;SDS011;3236;51.022;6.818;2023-02-17T07:39:33;9.00;;;5.25;;
6406;SDS011;3236;51.022;6.818;2023-02-17T07:42:01;7.43;;;4.93;;
6406;SDS011;3236;51.022;6.818;2023-02-17T07:44:29;8.50;;;6.00;;
6406;SDS011;3236;51.022;6.818;2023-02-17T07:46:59;9.48;;;6.18;;
6406;SDS011;3236;51.022;6.818;2023-02-17T07:49:27;7.28;;;4.80;;
6406;SDS011;3236;51.022;6.818;2023-02-17T07:51:59;7.53;;;4.82;;
6406;SDS011;3236;51.022;6.818;2023-02-17T07:54:29;8.43;;;5.15;;
6406;SDS011;3236;51.022;6.818;2023-02-17T07:57:02;9.55;;;5.45;;
6406;SDS011;3236;51.022;6.818;2023-02-17T07:59:30;16.38;;;8.07;;
6406;SDS011;3236;51.022;6.818;2023-02-17T08:01:57;10.63;;;6.80;;
6406;SDS011;3236;51.022;6.818;2023-02-17T08:04:24;8.30;;;5.70;;
6406;SDS011;3236;51.022;6.818;2023-02-17T08:06:51;7.38;;;5.30;;
6406;SDS011;3236;51.022;6.818;2023-02-17T08:09:21;7.15;;;5.22;;
6406;SDS011;3236;51.022;6.818;2023-02-17T08:12:07;6.15;;;3.97;;
6406;SDS011;3236;51.022;6.818;2023-02-17T08:14:55;7.95;;;4.80;;
6406;SDS011;3236;51.022;6.818;2023-02-17T08:17:23;8.50;;;5.50;;
6406;SDS011;3236;51.022;6.818;2023-02-17T08:19:50;4.10;;;3.00;;
6406;SDS011;3236;51.022;6.818;2023-02-17T08:22:20;7.20;;;4.50;;
6406;SDS011;3236;51.022;6.818;2023-02-17T08:24:52;5.18;;;3.55;;
6406;SDS011;3236;51.022;6.818;2023-02-17T08:29:47;4.90;;;3.63;;
6406;SDS011;3236;51.022;6.818;2023-02-17T08:32:15;10.00;;;5.07;;
6406;SDS011;3236;51.022;6.818;2023-02-17T08:34:45;8.73;;;4.65;;
6406;SDS011;3236;51.022;6.818;2023-02-17T08:37:13;4.53;;;3.53;;
6406;SDS011;3236;51.022;6.818;2023-02-17T08:39:41;8.00;;;5.07;;
6406;SDS011;3236;51.022;6.818;2023-02-17T08:42:10;6.22;;;3.53;;
6406;SDS011;3236;51.022;6.818;2023-02-17T08:47:07;5.00;;;3.78;;
6406;SDS011;3236;51.022;6.818;2023-02-17T08:49:34;6.57;;;4.53;;
6406;SDS011;3236;51.022;6.818;2023-02-17T08:52:02;8.57;;;3.97;;
6406;SDS011;3236;51.022;6.818;2023-02-17T08:54:41;5.72;;;3.92;;
6406;SDS011;3236;51.022;6.818;2023-02-17T08:57:13;7.95;;;4.53;;
6406;SDS011;3236;51.022;6.818;2023-02-17T08:59:43;6.05;;;3.30;;
6406;SDS011;3236;51.022;6.818;2023-02-17T09:02:12;6.65;;;3.92;;
6406;SDS011;3236;51.022;6.818;2023-02-17T09:04:39;5.55;;;3.85;;
6406;SDS011;3236;51.022;6.818;2023-02-17T09:07:10;8.57;;;4.55;;
6406;SDS011;3236;51.022;6.818;2023-02-17T09:09:39;5.15;;;3.05;;
6406;SDS011;3236;51.022;6.818;2023-02-17T09:12:07;13.23;;;7.18;;
6406;SDS011;3236;51.022;6.818;2023-02-17T09:14:36;9.00;;;5.47;;
6406;SDS011;3236;51.022;6.818;2023-02-17T09:17:04;7.53;;;4.65;;
6406;SDS011;3236;51.022;6.818;2023-02-17T09:19:31;7.75;;;4.97;;
6406;SDS011;3236;51.022;6.818;2023-02-17T09:21:58;14.15;;;5.90;;
6406;SDS011;3236;51.022;6.818;2023-02-17T09:24:25;6.47;;;4.20;;
6406;SDS011;3236;51.022;6.818;2023-02-17T09:26:53;6.43;;;3.75;;
6406;SDS011;3236;51.022;6.818;2023-02-17T09:29:20;5.47;;;3.80;;
6406;SDS011;3236;51.022;6.818;2023-02-17T09:31:48;8.90;;;4.15;;
6406;SDS011;3236;51.022;6.818;2023-02-17T09:34:15;4.78;;;2.83;;
6406;SDS011;3236;51.022;6.818;2023-02-17T09:36:43;5.03;;;2.55;;
6406;SDS011;3236;51.022;6.818;2023-02-17T09:39:14;4.45;;;3.58;;
6406;SDS011;3236;51.022;6.818;2023-02-17T09:41:42;4.07;;;3.47;;
6406;SDS011;3236;51.022;6.818;2023-02-17T09:44:16;3.05;;;2.50;;
6406;SDS011;3236;51.022;6.818;2023-02-17T09:46:56;3.97;;;2.75;;
6406;SDS011;3236;51.022;6.818;2023-02-17T09:49:34;4.00;;;2.75;;
6406;SDS011;3236;51.022;6.818;2023-02-17T09:52:06;5.22;;;3.45;;
6406;SDS011;3236;51.022;6.818;2023-02-17T09:54:40;3.95;;;2.72;;
6406;SDS011;3236;51.022;6.818;2023-02-17T09:57:15;3.60;;;2.75;;
6406;SDS011;3236;51.022;6.818;2023-02-17T09:59:45;2.83;;;2.42;;
6406;SDS011;3236;51.022;6.818;2023-02-17T10:02:32;3.47;;;2.28;;
6406;SDS011;3236;51.022;6.818;2023-02-17T10:05:08;2.65;;;2.33;;
6406;SDS011;3236;51.022;6.818;2023-02-17T10:07:39;3.38;;;2.33;;
6406;SDS011;3236;51.022;6.818;2023-02-17T10:10:10;4.97;;;2.60;;
6406;SDS011;3236;51.022;6.818;2023-02-17T10:12:42;4.90;;;3.08;;
6406;SDS011;3236;51.022;6.818;2023-02-17T10:15:12;5.18;;;3.30;;
6406;SDS011;3236;51.022;6.818;2023-02-17T10:17:52;3.40;;;2.45;;
6406;SDS011;3236;51.022;6.818;2023-02-17T10:20:32;2.42;;;2.00;;
6406;SDS011;3236;51.022;6.818;2023-02-17T10:23:03;5.32;;;2.97;;
6406;SDS011;3236;51.022;6.818;2023-02-17T10:25:43;6.97;;;3.15;;
6406;SDS011;3236;51.022;6.818;2023-02-17T10:28:26;4.57;;;3.13;;
6406;SDS011;3236;51.022;6.818;2023-02-17T10:31:04;5.43;;;2.77;;
6406;SDS011;3236;51.022;6.818;2023-02-17T10:33:43;3.95;;;2.05;;
6406;SDS011;3236;51.022;6.818;2023-02-17T10:36:18;9.40;;;2.38;;
6406;SDS011;3236;51.022;6.818;2023-02-17T10:38:53;6.97;;;2.83;;
6406;SDS011;3236;51.022;6.818;2023-02-17T10:41:34;2.08;;;1.88;;
6406;SDS011;3236;51.022;6.818;2023-02-17T10:44:05;3.58;;;2.75;;
6406;SDS011;3236;51.022;6.818;2023-02-17T10:46:37;2.38;;;1.70;;
6406;SDS011;3236;51.022;6.818;2023-02-17T10:49:13;6.55;;;2.88;;
6406;SDS011;3236;51.022;6.818;2023-02-17T10:51:46;3.90;;;2.15;;
6406;SDS011;3236;51.022;6.818;2023-02-17T10:54:16;3.85;;;2.50;;
6406;SDS011;3236;51.022;6.818;2023-02-17T10:56:52;6.70;;;2.10;;
6406;SDS011;3236;51.022;6.818;2023-02-17T10:59:26;3.05;;;1.83;;
6406;SDS011;3236;51.022;6.818;2023-02-17T11:01:57;2.15;;;1.88;;
6406;SDS011;3236;51.022;6.818;2023-02-17T11:04:42;2.35;;;1.95;;
6406;SDS011;3236;51.022;6.818;2023-02-17T11:07:11;3.08;;;1.88;;
6406;SDS011;3236;51.022;6.818;2023-02-17T11:09:44;2.03;;;1.70;;
6406;SDS011;3236;51.022;6.818;2023-02-17T11:12:14;3.78;;;2.33;;
6406;SDS011;3236;51.022;6.818;2023-02-17T11:14:47;2.53;;;2.13;;
6406;SDS011;3236;51.022;6.818;2023-02-17T11:17:19;2.72;;;1.83;;
6406;SDS011;3236;51.022;6.818;2023-02-17T11:19:57;3.85;;;1.98;;
6406;SDS011;3236;51.022;6.818;2023-02-17T11:22:30;2.28;;;1.90;;
6406;SDS011;3236;51.022;6.818;2023-02-17T11:25:18;4.00;;;1.92;;
6406;SDS011;3236;51.022;6.818;2023-02-17T11:27:50;4.93;;;2.13;;
6406;SDS011;3236;51.022;6.818;2023-02-17T11:30:21;4.75;;;1.98;;
6406;SDS011;3236;51.022;6.818;2023-02-17T11:32:52;2.50;;;1.90;;
6406;SDS011;3236;51.022;6.818;2023-02-17T11:35:23;4.13;;;2.00;;
6406;SDS011;3236;51.022;6.818;2023-02-17T11:37:59;5.30;;;2.63;;
6406;SDS011;3236;51.022;6.818;2023-02-17T11:40:27;4.60;;;1.52;;
6406;SDS011;3236;51.022;6.818;2023-02-17T11:42:57;3.47;;;2.10;;
6406;SDS011;3236;51.022;6.818;2023-02-17T11:45:29;3.30;;;1.80;;
6406;SDS011;3236;51.022;6.818;2023-02-17T11:48:16;5.18;;;2.40;;
6406;SDS011;3236;51.022;6.818;2023-02-17T11:51:04;7.93;;;2.50;;
6406;SDS011;3236;51.022;6.818;2023-02-17T11:53:41;4.70;;;2.13;;
6406;SDS011;3236;51.022;6.818;2023-02-17T11:56:21;4.60;;;1.85;;
6406;SDS011;3236;51.022;6.818;2023-02-17T12:01:47;6.38;;;2.03;;
6406;SDS011;3236;51.022;6.818;2023-02-17T12:04:37;4.22;;;1.95;;
6406;SDS011;3236;51.022;6.818;2023-02-17T12:10:04;1.92;;;1.42;;
6406;SDS011;3236;51.022;6.818;2023-02-17T12:12:44;5.65;;;2.10;;
6406;SDS011;3236;51.022;6.818;2023-02-17T12:15:41;2.97;;;1.70;;
6406;SDS011;3236;51.022;6.818;2023-02-17T12:18:22;6.38;;;2.03;;
6406;SDS011;3236;51.022;6.818;2023-02-17T12:21:01;8.07;;;1.85;;
6406;SDS011;3236;51.022;6.818;2023-02-17T12:23:45;4.50;;;1.60;;
6406;SDS011;3236;51.022;6.818;2023-02-17T12:26:24;7.53;;;1.90;;
6406;SDS011;3236;51.022;6.818;2023-02-17T12:29:04;2.47;;;1.70;;
6406;SDS011;3236;51.022;6.818;2023-02-17T12:31:46;15.07;;;2.08;;
6406;SDS011;3236;51.022;6.818;2023-02-17T12:34:29;5.43;;;1.70;;
6406;SDS011;3236;51.022;6.818;2023-02-17T12:36:59;8.07;;;1.80;;
6406;SDS011;3236;51.022;6.818;2023-02-17T12:39:33;8.85;;;2.10;;
6406;SDS011;3236;51.022;6.818;2023-02-17T12:42:08;6.50;;;2.55;;
6406;SDS011;3236;51.022;6.818;2023-02-17T12:44:39;5.65;;;2.00;;
6406;SDS011;3236;51.022;6.818;2023-02-17T12:47:10;9.25;;;1.92;;
6406;SDS011;3236;51.022;6.818;2023-02-17T12:49:43;3.60;;;1.83;;
6406;SDS011;3236;51.022;6.818;2023-02-17T12:52:16;13.63;;;2.30;;
6406;SDS011;3236;51.022;6.818;2023-02-17T12:54:50;4.32;;;1.70;;
6406;SDS011;3236;51.022;6.818;2023-02-17T12:57:29;4.57;;;1.80;;
6406;SDS011;3236;51.022;6.818;2023-02-17T13:00:05;8.85;;;2.30;;
6406;SDS011;3236;51.022;6.818;2023-02-17T13:02:44;3.50;;;1.90;;
6406;SDS011;3236;51.022;6.818;2023-02-17T13:05:20;7.07;;;2.40;;
6406;SDS011;3236;51.022;6.818;2023-02-17T13:07:56;17.33;;;1.75;;
6406;SDS011;3236;51.022;6.818;2023-02-17T13:10:30;3.47;;;1.90;;
6406;SDS011;3236;51.022;6.818;2023-02-17T13:13:00;8.48;;;3.15;;
6406;SDS011;3236;51.022;6.818;2023-02-17T13:15:32;3.97;;;2.13;;
6406;SDS011;3236;51.022;6.818;2023-02-17T13:18:11;8.60;;;1.85;;
6406;SDS011;3236;51.022;6.818;2023-02-17T13:23:41;9.60;;;2.45;;
6406;SDS011;3236;51.022;6.818;2023-02-17T13:26:26;5.18;;;1.70;;
6406;SDS011;3236;51.022;6.818;2023-02-17T13:29:10;6.13;;;1.75;;
6406;SDS011;3236;51.022;6.818;2023-02-17T13:31:47;5.53;;;1.85;;
6406;SDS011;3236;51.022;6.818;2023-02-17T13:34:26;6.07;;;1.92;;
6406;SDS011;3236;51.022;6.818;2023-02-17T13:36:58;4.40;;;2.05;;
6406;SDS011;3236;51.022;6.818;2023-02-17T13:39:36;2.17;;;1.73;;
6406;SDS011;3236;51.022;6.818;2023-02-17T13:44:56;2.92;;;1.98;;
6406;SDS011;3236;51.022;6.818;2023-02-17T13:47:27;5.70;;;2.25;;
6406;SDS011;3236;51.022;6.818;2023-02-17T13:49:58;3.42;;;2.05;;
6406;SDS011;3236;51.022;6.818;2023-02-17T13:52:26;3.70;;;2.08;;
6406;SDS011;3236;51.022;6.818;2023-02-17T13:54:56;3.30;;;1.45;;
6406;SDS011;3236;51.022;6.818;2023-02-17T13:57:26;2.13;;;1.63;;
6406;SDS011;3236;51.022;6.818;2023-02-17T14:00:06;4.38;;;1.60;;
6406;SDS011;3236;51.022;6.818;2023-02-17T14:02:36;3.08;;;2.17;;
6406;SDS011;3236;51.022;6.818;2023-02-17T14:05:15;4.05;;;2.03;;
6406;SDS011;3236;51.022;6.818;2023-02-17T14:07:44;4.70;;;2.00;;
6406;SDS011;3236;51.022;6.818;2023-02-17T14:10:16;5.25;;;1.92;;
6406;SDS011;3236;51.022;6.818;2023-02-17T14:12:46;3.88;;;2.10;;
6406;SDS011;3236;51.022;6.818;2023-02-17T14:15:15;2.55;;;1.73;;
6406;SDS011;3236;51.022;6.818;2023-02-17T14:17:43;2.80;;;2.05;;
6406;SDS011;3236;51.022;6.818;2023-02-17T14:20:23;5.10;;;1.75;;
6406;SDS011;3236;51.022;6.818;2023-02-17T14:22:58;3.20;;;1.77;;
6406;SDS011;3236;51.022;6.818;2023-02-17T14:25:31;10.25;;;2.10;;
6406;SDS011;3236;51.022;6.818;2023-02-17T14:28:03;1.95;;;1.38;;
6406;SDS011;3236;51.022;6.818;2023-02-17T14:30:44;2.78;;;1.70;;
6406;SDS011;3236;51.022;6.818;2023-02-17T14:33:17;7.53;;;1.88;;
6406;SDS011;3236;51.022;6.818;2023-02-17T14:35:49;4.05;;;2.22;;
6406;SDS011;3236;51.022;6.818;2023-02-17T14:38:19;2.78;;;2.13;;
6406;SDS011;3236;51.022;6.818;2023-02-17T14:40:48;4.57;;;2.35;;
6406;SDS011;3236;51.022;6.818;2023-02-17T14:43:21;4.28;;;1.88;;
6406;SDS011;3236;51.022;6.818;2023-02-17T14:48:16;4.10;;;2.00;;
6406;SDS011;3236;51.022;6.818;2023-02-17T14:50:44;2.28;;;1.95;;
6406;SDS011;3236;51.022;6.818;2023-02-17T14:53:15;3.85;;;2.35;;
6406;SDS011;3236;51.022;6.818;2023-02-17T14:55:50;5.15;;;2.95;;
6406;SDS011;3236;51.022;6.818;2023-02-17T14:58:27;2.83;;;2.15;;
6406;SDS011;3236;51.022;6.818;2023-02-17T15:01:05;3.67;;;2.92;;
6406;SDS011;3236;51.022;6.818;2023-02-17T15:03:41;4.10;;;2.72;;
6406;SDS011;3236;51.022;6.818;2023-02-17T15:06:10;4.20;;;2.90;;
6406;SDS011;3236;51.022;6.818;2023-02-17T15:08:39;3.05;;;2.30;;
6406;SDS011;3236;51.022;6.818;2023-02-17T15:11:11;3.58;;;1.80;;
6406;SDS011;3236;51.022;6.818;2023-02-17T15:13:45;8.90;;;2.03;;
6406;SDS011;3236;51.022;6.818;2023-02-17T15:16:12;1.63;;;1.13;;
6406;SDS011;3236;51.022;6.818;2023-02-17T15:18:40;3.15;;;1.50;;
6406;SDS011;3236;51.022;6.818;2023-02-17T15:24:02;3.15;;;1.40;;
6406;SDS011;3236;51.022;6.818;2023-02-17T15:26:39;3.60;;;1.60;;
6406;SDS011;3236;51.022;6.818;2023-02-17T15:29:09;7.00;;;1.63;;
6406;SDS011;3236;51.022;6.818;2023-02-17T15:31:43;1.60;;;1.45;;
6406;SDS011;3236;51.022;6.818;2023-02-17T15:34:12;4.85;;;1.90;;
6406;SDS011;3236;51.022;6.818;2023-02-17T15:36:46;2.60;;;1.58;;
6406;SDS011;3236;51.022;6.818;2023-02-17T15:39:14;2.65;;;1.77;;
6406;SDS011;3236;51.022;6.818;2023-02-17T15:41:45;3.55;;;2.13;;
6406;SDS011;3236;51.022;6.818;2023-02-17T15:46:51;1.98;;;1.73;;
6406;SDS011;3236;51.022;6.818;2023-02-17T15:49:19;3.10;;;1.13;;
6406;SDS011;3236;51.022;6.818;2023-02-17T15:51:47;2.22;;;1.85;;
6406;SDS011;3236;51.022;6.818;2023-02-17T15:54:18;3.15;;;1.63;;
6406;SDS011;3236;51.022;6.818;2023-02-17T15:56:48;1.55;;;1.38;;
6406;SDS011;3236;51.022;6.818;2023-02-17T15:59:21;3.67;;;1.45;;
6406;SDS011;3236;51.022;6.818;2023-02-17T16:01:52;5.32;;;2.00;;
6406;SDS011;3236;51.022;6.818;2023-02-17T16:04:20;3.28;;;1.70;;
6406;SDS011;3236;51.022;6.818;2023-02-17T16:06:48;3.75;;;2.30;;
6406;SDS011;3236;51.022;6.818;2023-02-17T16:09:15;2.97;;;1.70;;
6406;SDS011;3236;51.022;6.818;2023-02-17T16:11:47;5.38;;;2.08;;